createdAt,value
2023-05-19T00:01:35.399Z,80.3257
2023-05-19T00:02:36.695Z,78.6046
2023-05-19T00:04:40.185Z,79.1143
2023-05-19T00:05:42.058Z,79.3827
2023-05-19T00:07:44.798Z,77.8666
2023-05-19T00:08:46.076Z,78.2116
2023-05-19T00:11:51.697Z,78.5933
2023-05-19T00:12:54.166Z,79.2160
2023-05-19T00:14:53.905Z,80.6098
2023-05-19T00:15:55.921Z,79.9703
2023-05-19T00:16:57.535Z,79.1211
2023-05-19T00:17:58.731Z,79.9711
2023-05-19T00:18:59.559Z,78.8170
2023-05-19T00:31:16.684Z,79.4123
2023-05-19T00:32:18.660Z,79.8775
2023-05-19T00:38:26.000Z,79.3963
2023-05-19T00:39:27.689Z,81.4688
2023-05-19T00:40:28.823Z,81.7971
2023-05-19T00:41:30.820Z,80.4257
2023-05-19T00:42:31.030Z,80.3890
2023-05-19T00:43:31.922Z,79.9607
2023-05-19T00:45:34.500Z,80.0852
2023-05-19T00:54:12.677Z,80.1608
2023-05-19T00:55:13.624Z,81.5356
2023-05-19T00:56:15.410Z,80.0058
2023-05-19T00:57:16.776Z,79.7796
2023-05-19T00:58:18.106Z,80.3886
2023-05-19T01:00:21.704Z,78.6482
2023-05-19T01:16:40.490Z,81.6383
2023-05-19T01:17:41.622Z,82.6482
2023-05-19T01:18:42.809Z,82.0492
2023-05-19T01:19:44.418Z,82.4289
2023-05-19T01:20:46.029Z,82.0113
2023-05-19T01:21:46.970Z,81.9731
2023-05-19T01:22:47.761Z,81.8793
2023-05-19T01:23:48.933Z,81.6564
2023-05-19T01:24:49.151Z,82.8515
2023-05-19T01:38:05.779Z,82.9533
2023-05-19T01:39:06.476Z,83.9155
2023-05-19T01:45:12.801Z,82.9844
2023-05-19T01:52:19.319Z,82.5550
2023-05-19T01:53:21.220Z,82.1346
2023-05-19T01:54:22.526Z,82.5478
2023-05-19T01:55:24.587Z,82.8825
2023-05-19T01:56:26.830Z,84.3372
2023-05-19T01:57:27.823Z,83.3395
2023-05-19T01:58:29.130Z,82.7572
2023-05-19T01:59:31.954Z,81.9843
2023-05-19T02:00:32.078Z,83.5636
2023-05-19T02:13:45.852Z,83.2592
2023-05-19T02:14:46.863Z,83.9400
2023-05-19T02:15:48.016Z,83.1862
2023-05-19T02:16:49.150Z,83.7576
2023-05-19T02:17:51.368Z,82.8529
2023-05-19T02:30:04.746Z,85.7335
2023-05-19T02:31:07.409Z,83.0906
2023-05-19T02:33:08.017Z,82.4998
2023-05-19T02:34:08.699Z,82.3619
2023-05-19T02:35:09.962Z,83.8626
2023-05-19T02:36:11.520Z,82.5295
2023-05-19T02:37:13.420Z,83.5375
2023-05-19T02:38:15.073Z,82.9600
2023-05-19T02:40:18.389Z,83.9817
2023-05-19T02:41:20.493Z,82.2926
2023-05-19T02:46:26.058Z,82.8560
2023-05-19T02:47:27.882Z,82.5660
2023-05-19T02:48:29.528Z,82.9035
2023-05-19T02:49:30.928Z,82.6367
2023-05-19T03:10:42.563Z,85.6545
2023-05-19T03:11:45.096Z,83.9031
2023-05-19T03:12:46.230Z,83.5194
2023-05-19T03:14:47.001Z,83.7460
2023-05-19T03:16:50.808Z,83.6082
2023-05-19T03:17:51.695Z,84.2495
2023-05-19T03:23:58.129Z,83.6889
2023-05-19T03:24:59.553Z,83.9107
2023-05-19T03:26:02.472Z,83.7642
2023-05-19T03:35:09.387Z,84.8652
2023-05-19T03:36:10.349Z,86.0383
2023-05-19T03:37:12.509Z,84.2461
2023-05-19T03:38:14.381Z,84.5289
2023-05-19T03:48:55.201Z,84.2127
2023-05-19T03:49:56.408Z,84.8632
2023-05-19T03:50:57.633Z,85.3901
2023-05-19T03:53:00.519Z,85.5940
2023-05-19T03:54:01.581Z,86.2907
2023-05-19T03:56:04.540Z,86.7178
2023-05-19T03:57:06.338Z,86.1913
2023-05-19T03:58:07.536Z,86.9656
2023-05-19T03:59:08.642Z,87.5359
2023-05-19T04:00:09.947Z,85.5836
2023-05-19T04:02:13.060Z,85.0564
2023-05-19T04:03:14.696Z,85.2090
2023-05-19T04:04:16.096Z,85.3140
2023-05-19T04:05:17.497Z,86.5882
2023-05-19T04:06:19.245Z,85.8164
2023-05-19T04:07:20.716Z,85.2952
2023-05-19T04:08:23.734Z,86.0250
2023-05-19T04:09:23.753Z,85.7466
2023-05-19T04:10:24.143Z,85.5823
2023-05-19T04:23:36.147Z,86.0304
2023-05-19T04:24:38.199Z,87.0369
2023-05-19T04:25:38.724Z,86.9265
2023-05-19T04:26:39.912Z,86.6274
2023-05-19T04:27:41.454Z,86.4822
2023-05-19T04:28:43.776Z,86.5371
2023-05-19T04:29:44.249Z,86.6349
2023-05-19T04:30:44.533Z,87.3638
2023-05-19T04:31:44.870Z,87.6858
2023-05-19T04:48:05.778Z,84.7218
2023-05-19T04:49:08.029Z,85.4550
2023-05-19T04:54:12.050Z,84.9638
2023-05-19T04:55:13.510Z,85.1560
2023-05-19T04:56:15.440Z,83.9036
2023-05-19T04:58:19.338Z,84.1658
2023-05-19T04:59:20.432Z,83.1751
2023-05-19T05:00:23.480Z,83.2303
2023-05-19T05:01:24.181Z,82.8143
2023-05-19T05:02:24.277Z,83.2634
2023-05-19T05:03:25.860Z,83.2137
2023-05-19T05:04:26.885Z,82.9136
2023-05-19T05:05:28.441Z,83.0192
2023-05-19T05:06:30.015Z,83.1186
2023-05-19T05:09:33.769Z,81.8211
2023-05-19T05:10:35.900Z,81.9218
2023-05-19T05:11:36.047Z,83.4631
2023-05-19T05:12:37.722Z,82.8095
2023-05-19T05:18:47.523Z,81.0686
2023-05-19T05:19:48.910Z,82.0973
2023-05-19T05:20:49.941Z,81.2872
2023-05-19T05:21:52.632Z,80.6908
2023-05-19T05:34:05.615Z,82.5462
2023-05-19T05:37:09.101Z,82.7417
2023-05-19T05:38:11.706Z,82.2837
2023-05-19T05:39:13.036Z,83.1975
2023-05-19T05:40:14.996Z,82.5411
2023-05-19T05:41:15.119Z,82.7923
2023-05-19T05:42:17.463Z,82.9534
2023-05-19T05:44:17.941Z,83.0786
2023-05-19T05:45:18.479Z,83.2916
2023-05-19T05:46:20.588Z,82.9183
2023-05-19T05:47:21.002Z,82.5790
2023-05-19T05:51:25.341Z,82.4999
2023-05-19T05:52:26.035Z,82.7732
2023-05-19T05:54:26.526Z,82.7486
2023-05-19T06:00:36.456Z,83.1971
2023-05-19T06:02:37.892Z,82.7847
2023-05-19T06:03:37.840Z,82.8619
2023-05-19T06:05:42.367Z,83.0404
2023-05-19T06:11:17.206Z,81.9055
2023-05-19T06:12:18.255Z,82.6769
2023-05-19T06:13:18.482Z,82.9254
2023-05-19T06:14:20.956Z,82.7036
2023-05-19T06:15:22.344Z,82.9277
2023-05-19T06:16:23.757Z,82.6770
2023-05-19T06:18:27.189Z,82.9877
2023-05-19T06:19:29.154Z,83.3855
2023-05-19T06:20:30.576Z,83.0016
2023-05-19T06:21:31.664Z,82.8593
2023-05-19T06:22:31.422Z,82.9215
2023-05-19T06:31:45.131Z,83.3387
2023-05-19T06:38:53.715Z,83.1263
2023-05-19T06:39:54.635Z,83.1423
2023-05-19T06:40:56.395Z,82.9081
2023-05-19T06:41:58.750Z,83.1344
2023-05-19T06:43:00.758Z,83.2232
2023-05-19T06:44:02.924Z,83.2688
2023-05-19T06:45:04.010Z,83.3066
2023-05-19T06:46:06.010Z,83.0992
2023-05-19T06:47:08.104Z,83.0135
2023-05-19T06:49:09.332Z,82.5781
2023-05-19T06:50:10.912Z,83.2349
2023-05-19T06:51:13.045Z,83.2812
2023-05-19T06:52:14.487Z,83.0133
2023-05-19T06:54:16.854Z,83.3071
2023-05-19T06:55:17.912Z,83.4326
2023-05-19T06:56:18.940Z,83.8776
2023-05-19T06:57:33.331Z,83.1707
2023-05-19T09:07:40.395Z,76.9310
2023-05-19T09:08:41.055Z,77.2505
2023-05-19T09:09:41.821Z,77.5077
2023-05-19T09:10:42.785Z,75.5029
2023-05-19T09:11:43.219Z,74.6434
2023-05-19T09:12:45.355Z,76.6044
2023-05-19T09:13:46.509Z,75.8570
2023-05-19T09:14:48.299Z,77.0683
2023-05-19T09:15:48.617Z,77.4083
2023-05-19T09:16:49.923Z,76.1365
2023-05-19T09:17:50.913Z,77.1021
2023-05-19T09:18:51.219Z,75.9164
2023-05-19T09:19:53.189Z,76.6352
2023-05-19T09:20:53.441Z,76.6085
2023-05-19T09:21:55.549Z,77.0195
2023-05-19T09:22:55.476Z,77.6350
2023-05-19T09:23:56.847Z,77.3599
2023-05-19T09:24:56.856Z,76.8642
2023-05-19T09:25:58.402Z,79.1548
2023-05-19T09:27:00.859Z,78.4551
2023-05-19T09:29:00.495Z,77.8890
2023-05-19T09:58:37.505Z,73.6006
2023-05-19T09:59:37.952Z,74.5476
2023-05-19T10:00:38.777Z,74.1814
2023-05-19T10:01:41.218Z,74.3004
2023-05-19T10:02:41.527Z,74.5201
2023-05-19T10:03:41.962Z,75.3485
2023-05-19T10:04:42.738Z,75.2686
2023-05-19T10:05:42.973Z,74.5669
2023-05-19T10:06:43.838Z,72.7346
2023-05-19T10:07:45.467Z,72.5282
2023-05-19T10:08:47.592Z,74.9290
2023-05-19T10:09:48.292Z,71.0461
2023-05-19T10:10:48.863Z,71.0128
2023-05-19T10:11:49.417Z,73.2252
2023-05-19T10:12:50.421Z,72.5555
2023-05-19T10:13:51.238Z,74.2923
2023-05-19T10:14:51.058Z,72.4747
2023-05-19T10:24:58.373Z,73.4811
2023-05-19T10:25:59.477Z,72.3992
2023-05-19T10:27:00.683Z,73.1742
2023-05-19T10:29:02.956Z,73.9489
2023-05-19T10:30:04.076Z,73.1226
2023-05-19T10:31:05.629Z,73.0503
2023-05-19T10:33:07.953Z,73.6386
2023-05-19T10:34:08.815Z,73.9680
2023-05-19T10:35:10.044Z,71.6438
2023-05-19T10:36:11.027Z,74.0829
2023-05-19T10:37:11.192Z,74.6598
2023-05-19T10:38:11.770Z,73.5762
2023-05-19T10:39:13.691Z,74.2625
2023-05-19T10:40:14.057Z,72.7129
2023-05-19T10:41:15.033Z,73.6181
2023-05-19T10:42:15.846Z,72.6151
2023-05-19T10:43:17.379Z,73.6776
2023-05-19T10:44:17.549Z,73.4171
2023-05-19T10:45:19.418Z,73.7085
2023-05-19T10:46:20.851Z,73.8515
2023-05-19T10:47:21.592Z,73.5866
2023-05-19T10:48:21.810Z,70.6271
2023-05-19T10:49:22.548Z,72.5430
2023-05-19T10:50:22.868Z,73.6557
2023-05-19T10:51:23.724Z,73.7028
2023-05-19T10:52:24.122Z,72.5795
2023-05-19T10:53:25.007Z,74.2095
2023-05-19T10:54:25.666Z,72.2808
2023-05-19T10:55:26.276Z,73.0926
2023-05-19T10:56:28.595Z,72.1678
2023-05-19T10:57:29.103Z,70.6814
2023-05-19T11:01:35.281Z,70.7645
2023-05-19T11:02:35.618Z,71.4316
2023-05-19T11:03:37.187Z,70.3559
2023-05-19T11:04:37.504Z,71.6658
2023-05-19T11:05:38.161Z,70.0168
2023-05-19T11:06:38.216Z,70.9960
2023-05-19T11:07:38.617Z,71.8073
2023-05-19T11:08:39.348Z,73.3769
2023-05-19T11:10:42.549Z,71.8814
2023-05-19T11:11:44.634Z,71.7178
2023-05-19T11:12:45.846Z,73.1501
2023-05-19T11:13:46.519Z,73.4024
2023-05-19T11:14:46.577Z,72.7383
2023-05-19T11:15:47.454Z,73.3554
2023-05-19T11:16:47.396Z,70.0310
2023-05-19T11:38:03.923Z,69.1949
2023-05-19T11:39:05.334Z,68.2048
2023-05-19T11:40:07.029Z,67.6271
2023-05-19T11:41:08.320Z,67.8291
2023-05-19T11:42:09.666Z,66.7170
2023-05-19T11:43:10.320Z,64.9865
2023-05-19T11:44:11.283Z,65.1356
2023-05-19T11:45:12.006Z,65.0655
2023-05-19T11:48:16.817Z,69.1101
2023-05-19T11:49:18.052Z,68.4117
2023-05-19T11:50:19.240Z,67.5123
2023-05-19T11:51:19.410Z,67.7880
2023-05-19T11:52:19.811Z,67.5529
2023-05-19T11:53:21.106Z,66.4740
2023-05-19T11:54:23.141Z,66.1516
2023-05-19T11:55:23.892Z,67.1466
2023-05-19T11:56:24.320Z,65.9862
2023-05-19T11:57:26.323Z,64.3816
2023-05-19T11:58:27.073Z,65.0664
2023-05-19T11:59:27.768Z,65.6584
2023-05-19T12:00:29.049Z,64.1712
2023-05-19T12:01:29.943Z,62.9062
2023-05-19T12:02:30.324Z,64.2094
2023-05-19T12:03:31.098Z,65.0781
2023-05-19T12:04:31.605Z,64.4308
2023-05-19T12:05:43.170Z,63.2243
2023-05-19T12:18:15.203Z,65.6243
2023-05-19T12:19:16.121Z,64.9575
2023-05-19T12:20:16.809Z,67.8806
2023-05-19T12:21:17.387Z,67.6750
2023-05-19T12:22:18.128Z,65.6302
2023-05-19T12:23:18.501Z,65.4030
2023-05-19T12:24:19.408Z,65.3509
2023-05-19T12:25:20.313Z,65.2498
2023-05-19T12:26:20.649Z,65.6112
2023-05-19T12:27:20.963Z,63.6756
2023-05-19T12:29:21.815Z,65.5681
2023-05-19T12:30:22.183Z,64.9807
2023-05-19T12:31:23.707Z,64.6041
2023-05-19T12:32:25.498Z,64.5922
2023-05-19T12:33:26.701Z,64.8891
2023-05-19T12:34:27.505Z,65.0542
2023-05-19T12:38:32.847Z,63.6783
2023-05-19T12:39:33.823Z,64.1019
2023-05-19T12:40:36.642Z,65.3637
2023-05-19T12:59:54.949Z,68.9503
2023-05-19T13:00:54.800Z,66.9289
2023-05-19T13:13:06.721Z,66.5029
2023-05-19T13:17:11.987Z,69.1753
2023-05-19T13:18:12.645Z,69.2520
2023-05-19T13:37:00.486Z,69.5842
2023-05-19T13:38:01.580Z,70.6586
2023-05-19T13:39:02.733Z,71.9272
2023-05-19T13:40:03.102Z,70.4764
2023-05-19T13:41:03.309Z,70.5416
2023-05-19T13:42:04.171Z,70.3047
2023-05-19T13:43:05.475Z,71.2825
2023-05-19T13:44:06.770Z,72.0577
2023-05-19T13:45:07.981Z,69.9923
2023-05-19T13:46:09.245Z,69.0495
2023-05-19T13:47:10.780Z,70.5222
2023-05-19T13:48:11.453Z,70.8770
2023-05-19T13:49:12.382Z,70.4175
2023-05-19T13:50:13.148Z,69.8826
2023-05-19T13:51:13.717Z,70.0183
2023-05-19T13:52:14.492Z,67.8861
2023-05-19T13:53:14.446Z,69.5301
2023-05-19T14:14:04.675Z,72.9405
2023-05-19T14:15:05.371Z,72.7455
2023-05-19T14:16:05.992Z,72.2311
2023-05-19T14:17:06.551Z,72.2288
2023-05-19T14:18:07.793Z,73.8934
2023-05-19T14:19:08.161Z,72.8794
2023-05-19T14:28:14.462Z,72.1214
2023-05-19T14:30:15.151Z,74.2129
2023-05-19T14:31:17.051Z,72.3348
2023-05-19T14:32:17.779Z,72.4753
2023-05-19T14:33:19.266Z,73.2959
2023-05-19T14:34:20.352Z,70.8423
2023-05-19T14:35:20.800Z,70.1172
2023-05-19T14:36:21.359Z,70.5155
2023-05-19T14:39:25.792Z,71.4437
2023-05-19T14:40:25.804Z,70.9166
2023-05-19T14:41:25.904Z,71.0993
2023-05-19T14:42:26.954Z,70.4230
2023-05-19T14:45:29.740Z,70.2027
2023-05-19T14:46:30.055Z,70.7701
2023-05-19T14:47:31.377Z,70.3692
2023-05-19T14:48:32.069Z,70.3105
2023-05-19T14:49:32.057Z,70.2245
2023-05-19T14:50:32.988Z,69.2549
2023-05-19T14:51:32.919Z,69.2338
2023-05-19T14:52:33.455Z,71.3087
2023-05-19T14:53:34.452Z,69.6670
2023-05-19T14:54:35.014Z,69.0993
2023-05-19T14:55:36.518Z,69.9496
2023-05-19T14:56:37.054Z,69.7816
2023-05-19T14:57:37.897Z,70.0961
2023-05-19T14:58:38.551Z,69.8157
2023-05-19T14:59:39.582Z,70.0371
2023-05-19T15:00:39.691Z,69.7642
2023-05-19T15:01:40.591Z,70.0350
2023-05-19T15:02:41.005Z,69.8400
2023-05-19T15:04:44.604Z,70.9043
2023-05-19T15:05:44.775Z,70.0844
2023-05-19T15:25:00.175Z,71.9431
2023-05-19T15:26:00.346Z,72.5943
2023-05-19T15:27:01.548Z,71.8914
2023-05-19T15:28:02.918Z,72.5317
2023-05-19T15:29:02.700Z,72.2152
2023-05-19T15:31:05.266Z,72.8217
2023-05-19T15:33:07.314Z,72.5231
2023-05-19T15:38:15.021Z,71.9972
2023-05-19T15:39:16.526Z,72.8611
2023-05-19T15:40:18.096Z,73.2329
2023-05-19T15:41:19.029Z,72.5029
2023-05-19T15:42:20.471Z,72.8388
2023-05-19T15:43:21.109Z,72.7364
2023-05-19T15:45:21.946Z,73.1228
2023-05-19T15:46:23.563Z,72.8728
2023-05-19T15:48:26.968Z,72.3582
2023-05-19T15:49:29.852Z,72.7661
2023-05-19T16:00:43.791Z,73.0434
2023-05-19T16:01:44.454Z,72.7037
2023-05-19T16:02:44.525Z,73.0618
2023-05-19T16:03:46.895Z,72.4417
2023-05-19T16:04:47.121Z,72.1805
2023-05-19T16:05:48.231Z,73.8039
2023-05-19T16:06:48.743Z,72.9744
2023-05-19T16:07:48.926Z,72.9842
2023-05-19T16:08:51.758Z,74.1757
2023-05-19T16:09:53.177Z,72.3411
2023-05-19T16:10:55.685Z,72.0482
2023-05-19T16:11:56.169Z,72.3627
2023-05-19T16:21:05.640Z,70.6526
2023-05-19T16:22:06.166Z,70.8896
2023-05-19T16:23:07.628Z,70.9355
2023-05-19T16:24:08.624Z,70.3950
2023-05-19T16:25:08.705Z,70.7417
2023-05-19T16:26:09.703Z,70.3516
2023-05-19T16:27:11.190Z,72.3140
2023-05-19T16:28:12.046Z,71.7567
2023-05-19T16:29:14.133Z,71.7280
2023-05-19T16:30:14.889Z,71.2731
2023-05-19T16:31:16.356Z,70.7042
2023-05-19T16:32:16.864Z,70.9090
2023-05-19T16:42:26.517Z,71.2335
2023-05-19T16:43:28.875Z,71.8486
2023-05-19T16:44:28.985Z,72.1890
2023-05-19T16:52:38.295Z,71.8272
2023-05-19T16:53:41.028Z,73.1412
2023-05-19T16:54:41.621Z,72.5803
2023-05-19T17:09:57.231Z,71.8085
2023-05-19T17:10:57.368Z,72.2656
2023-05-19T17:11:57.193Z,72.8154
2023-05-19T17:14:01.092Z,72.7592
2023-05-19T17:15:00.757Z,73.0841
2023-05-19T17:17:03.769Z,73.0062
2023-05-19T17:18:05.362Z,73.1205
2023-05-19T17:19:07.248Z,72.8960
2023-05-19T17:20:07.753Z,72.8918
2023-05-19T17:21:10.019Z,73.2355
2023-05-19T17:22:11.400Z,74.5309
2023-05-19T17:23:14.332Z,74.3204
2023-05-19T17:25:16.520Z,73.6804
2023-05-19T17:26:18.499Z,73.7794
2023-05-19T17:38:33.182Z,74.2911
2023-05-19T17:39:33.575Z,74.2485
2023-05-19T17:41:36.428Z,73.8005
2023-05-19T17:42:38.736Z,74.0478
2023-05-19T17:44:42.469Z,75.0618
2023-05-19T17:45:43.671Z,74.6825
2023-05-19T17:46:44.930Z,74.5663
2023-05-19T17:47:47.000Z,74.0376
2023-05-19T17:48:47.340Z,74.3727
2023-05-19T17:49:51.642Z,75.0204
2023-05-19T18:05:08.384Z,75.2649
2023-05-19T18:06:08.834Z,73.5633
2023-05-19T18:07:10.102Z,74.1132
2023-05-19T18:08:12.536Z,73.6573
2023-05-19T18:09:14.503Z,73.4413
2023-05-19T18:19:26.587Z,73.2698
2023-05-19T18:20:28.416Z,73.5351
2023-05-19T18:21:30.708Z,74.0262
2023-05-19T18:22:31.129Z,74.0609
2023-05-19T18:23:33.018Z,74.2147
2023-05-19T18:24:34.058Z,73.7051
2023-05-19T18:25:35.788Z,73.8148
2023-05-19T18:26:36.681Z,74.1895
2023-05-19T18:27:38.197Z,74.1169
2023-05-19T18:28:40.515Z,74.2561
2023-05-19T18:29:41.527Z,74.2605
2023-05-19T18:30:42.997Z,75.4306
2023-05-19T18:31:45.377Z,74.9694
2023-05-19T18:32:46.950Z,75.9602
2023-05-19T18:47:04.392Z,75.2255
2023-05-19T18:48:06.261Z,75.1406
2023-05-19T18:52:11.575Z,75.8315
2023-05-19T18:53:13.780Z,76.9241
2023-05-19T18:55:15.004Z,76.2523
2023-05-19T18:56:16.947Z,76.5368
2023-05-19T18:57:18.049Z,76.3376
2023-05-19T18:58:19.953Z,76.0292
2023-05-19T18:59:22.502Z,76.3124
2023-05-19T19:00:24.545Z,75.9354
2023-05-19T19:01:27.181Z,77.0312
2023-05-19T19:03:29.812Z,78.6423
2023-05-19T19:04:31.511Z,75.9960
2023-05-19T19:06:32.281Z,76.5033
2023-05-19T19:07:32.885Z,76.5870
2023-05-19T19:15:42.321Z,77.8941
2023-05-19T19:16:44.103Z,78.1082
2023-05-19T19:17:45.858Z,76.9756
2023-05-19T19:18:47.622Z,79.0628
2023-05-19T19:19:49.729Z,76.9398
2023-05-19T19:20:50.819Z,77.6357
2023-05-19T19:21:52.743Z,76.6918
2023-05-19T19:22:54.137Z,77.2871
2023-05-19T19:23:55.839Z,76.9855
2023-05-19T19:25:58.359Z,77.0311
2023-05-19T19:27:00.474Z,77.6259
2023-05-19T19:29:03.313Z,78.0213
2023-05-19T19:30:05.307Z,77.9496
2023-05-19T19:31:05.827Z,78.4953
2023-05-19T19:32:08.272Z,78.9104
2023-05-19T19:33:10.334Z,78.1622
2023-05-19T19:40:15.607Z,78.9072
2023-05-19T19:47:28.993Z,79.6528
2023-05-19T19:48:30.688Z,77.8338
2023-05-19T19:49:32.515Z,78.8062
2023-05-19T19:56:38.004Z,78.4237
2023-05-19T19:58:40.241Z,78.6242
2023-05-19T19:59:40.527Z,77.9052
2023-05-19T20:00:42.704Z,78.3932
2023-05-19T20:01:44.905Z,78.3702
2023-05-19T20:05:48.451Z,81.3569
2023-05-19T20:06:49.442Z,79.6618
2023-05-19T20:07:50.797Z,79.1439
2023-05-19T20:08:52.736Z,79.1133
2023-05-19T20:09:54.282Z,79.8102
2023-05-19T20:29:18.528Z,78.3252
2023-05-19T20:37:25.937Z,80.6441
2023-05-19T20:38:25.981Z,79.9876
2023-05-19T20:39:27.926Z,81.0201
2023-05-19T20:40:30.102Z,80.1068
2023-05-19T20:41:32.225Z,81.7247
2023-05-19T21:04:01.550Z,80.0562
2023-05-19T21:05:02.374Z,79.1508
2023-05-19T21:06:03.508Z,79.5431
2023-05-19T21:07:05.298Z,79.7199
2023-05-19T21:15:13.447Z,79.6006
2023-05-19T21:16:14.541Z,79.2226
2023-05-19T21:17:15.757Z,80.1594
2023-05-19T21:18:16.885Z,80.7719
2023-05-19T21:19:18.922Z,80.0032
2023-05-19T21:23:24.788Z,81.1393
2023-05-19T21:24:24.736Z,81.6448
2023-05-19T21:25:25.543Z,80.6386
2023-05-19T21:26:26.464Z,80.8494
2023-05-19T21:27:27.381Z,81.7329
2023-05-19T21:28:29.244Z,81.1396
2023-05-19T21:29:30.241Z,81.3715
2023-05-19T21:31:34.474Z,82.2665
2023-05-19T21:32:35.815Z,80.3265
2023-05-19T21:33:36.820Z,80.6133
2023-05-19T21:34:37.560Z,82.2390
2023-05-19T21:35:37.654Z,80.9446
2023-05-19T21:37:41.088Z,83.6171
2023-05-19T21:38:43.406Z,82.9669
2023-05-19T21:39:43.797Z,82.2476
2023-05-19T21:40:45.283Z,84.1984
2023-05-19T21:42:48.425Z,82.2024
2023-05-19T21:43:49.822Z,82.6279
2023-05-19T21:44:51.616Z,82.3265
2023-05-19T21:45:52.398Z,82.1645
2023-05-19T22:00:08.185Z,83.1568
2023-05-19T22:01:10.136Z,82.5754
2023-05-19T22:02:12.721Z,82.8325
2023-05-19T22:04:12.826Z,81.9474
2023-05-19T22:05:14.197Z,83.3160
2023-05-19T22:06:14.865Z,82.7199
2023-05-19T22:08:18.293Z,83.2684
2023-05-19T22:22:35.465Z,81.8627
2023-05-19T22:23:36.629Z,82.9625
2023-05-19T22:24:37.588Z,83.5990
2023-05-19T22:25:39.325Z,83.5392
2023-05-19T22:26:40.121Z,82.8232
2023-05-19T22:27:42.761Z,81.6457
2023-05-19T22:41:59.163Z,84.6447
2023-05-19T22:43:00.774Z,86.3373
2023-05-19T22:44:02.096Z,85.7077
2023-05-19T22:45:04.951Z,86.2856
2023-05-19T22:46:06.279Z,84.9416
2023-05-19T22:47:07.270Z,86.1354
2023-05-19T22:48:09.192Z,86.1552
2023-05-19T22:49:09.540Z,84.1679
2023-05-19T23:00:24.922Z,86.1374
2023-05-19T23:11:34.177Z,87.0456
2023-05-19T23:12:34.415Z,88.4127
2023-05-19T23:14:36.962Z,89.0360
2023-05-19T23:15:37.616Z,89.4019
2023-05-19T23:20:42.161Z,86.4278
2023-05-19T23:21:43.296Z,89.2789
2023-05-19T23:22:44.271Z,88.5167
2023-05-19T23:23:44.295Z,89.0703
2023-05-19T23:24:45.781Z,89.5363
2023-05-19T23:26:49.506Z,86.6144
2023-05-19T23:27:51.354Z,88.7407
2023-05-19T23:28:52.639Z,89.2141
2023-05-19T23:29:54.776Z,89.5380
2023-05-19T23:30:57.025Z,89.3626
2023-05-19T23:31:58.972Z,86.1461
2023-05-19T23:43:11.144Z,87.7503
2023-05-19T23:44:12.992Z,88.7803
2023-05-19T23:45:14.234Z,89.3500
2023-05-19T23:46:16.273Z,89.3151
2023-05-19T23:47:18.157Z,89.6794
2023-05-19T23:48:19.105Z,88.6356
2023-05-19T23:49:20.420Z,88.8872
2023-05-19T23:50:21.094Z,88.5732
2023-05-19T23:51:23.152Z,89.6030
2023-05-19T23:52:24.524Z,89.2775
2023-05-19T23:54:28.171Z,90.3617
2023-05-19T23:55:30.384Z,90.9733
2023-05-19T23:56:31.599Z,90.8399
2023-05-19T23:57:34.134Z,90.9268
2023-05-19T23:58:35.622Z,89.9677
2023-05-19T23:59:36.764Z,91.2797
